Terminal Aerodrome Forecast
Issued by NWS Jacksonville, FL

Home | Current Version | Previous Version | Text Only | Print | Product List | Glossary On
Versions: 1 2 3 4 5 6 7 8 9 10 11 12 13 14 15 16 17 18 19 20 21 22 23 24 25
000
FTUS42 KJAX 212124 AAB
TAFGNV
TAF AMD
KGNV 212124Z 2121/2218 07005KT P6SM VCSH SCT025 BKN070 OVC120
     FM220000 00000KT P6SM SCT070 BKN120 BKN250
     FM220900 00000KT 3SM BR SCT250
     FM221300 14003KT P6SM SCT025=

USA.gov is the U.S. government's official web portal to all federal, state and local government web resources and services.